• Join FlightAware (Why Join?)
  • Login
  • US Flag 
08:26AM EDT


 

Airport Tracker/Info


-or-


 

Live Flight TrackerFlight Track Log ✈ EGF2566 ✈ 17-Apr-2013 ✈ KBTR - KDFW

Flight Track Log - Related Links

Times and Time Zones

All times are in EDT time to prevent confusion due to time zone crossing. See the EGF2566 flight status page for this flight to view local times or setup timezone preferences in your user account.

Time Position Orientation Groundspeed Altitude Reporting Facility
EDT Latitude Longitude Course Direction KTS MPH feet Rate Location/Type
09:47PM 30.6478 -91.4150 297° West  Level Estimated
09:48PM 30.6860 -91.5036 297° West  Level Estimated
09:49PM 30.7242 -91.5922 297° West  Level Estimated
09:50PM 30.7622 -91.6808 297° West  Level Estimated
09:51PM 30.8002 -91.7696 297° West  Level Estimated
09:52PM 30.8382 -91.8584 296° West  Level Estimated
09:53PM 30.8761 -91.9473 296° West  Level Estimated
09:54PM 30.9139 -92.0362 296° West  Level Estimated
09:55PM 30.9517 -92.1253 296° West  Level Estimated
09:56PM 30.9894 -92.2143 296° West  Level Estimated
09:57PM 31.0270 -92.3035 296° West  Level Estimated
09:58PM 31.0646 -92.3927 296° West  Level Estimated
09:59PM 31.1021 -92.4820 296° West  Level Estimated
10:00PM 31.1396 -92.5714 296° West  Level Estimated
10:01PM 31.1770 -92.6608 296° West  Level Estimated
10:02PM 31.2143 -92.7504 296° West  Level Estimated
10:03PM 31.2516 -92.8399 296° West  Level Estimated
10:04PM 31.2888 -92.9296 296° West  Level Estimated
10:05PM 31.3260 -93.0193 296° West  Level Estimated
10:06PM 31.3631 -93.1091 296° West  Level Estimated
10:07PM 31.4001 -93.1990 296° West  Level Estimated
10:08PM 31.4370 -93.2889 296° West  Level Estimated
10:09PM 31.4739 -93.3790 296° West  Level Estimated
10:10PM 31.5108 -93.4690 296° West  Level Estimated
10:11PM 31.5476 -93.5592 296° West  Level Estimated
10:12PM 31.5843 -93.6494 296° West  Level Estimated
10:13PM 31.6209 -93.7397 296° West  Level Estimated
10:14PM 31.6575 -93.8301 295° West  Level Estimated
10:15PM 31.6940 -93.9205 295° West  Level Estimated
10:16PM 31.7305 -94.0110 295° West  Level Estimated
10:17PM 31.7669 -94.1016 295° West  Level Estimated
10:18PM 31.8032 -94.1922 295° West  Level Estimated
10:19PM 31.8418 -94.2889 295° West  Level Estimated
10:20PM 31.8804 -94.3857 295° West  Level Estimated
10:21PM 31.9189 -94.4825 295° West  Level Estimated
10:22PM 31.9573 -94.5794 295° West  Level Estimated
10:23PM 31.9957 -94.6764 295° West  Level Estimated
10:24PM 32.0339 -94.7735 295° West  Level Estimated
10:25PM 32.0721 -94.8707 295° West  Level Estimated
10:26PM 32.1103 -94.9679 295° West  Level Estimated
10:27PM 32.1483 -95.0652 295° West  Level Estimated
10:28PM 32.1863 -95.1626 295° West  Level Estimated
10:29PM 32.2242 -95.2601 295° West  Level Estimated
10:30PM 32.2620 -95.3577 295° West  Level Estimated
10:31PM 32.2998 -95.4553 295° West  Level Estimated
10:32PM 32.3374 -95.5530 295° West  Level Estimated
10:33PM 32.3750 -95.6508 294° West  Level Estimated
10:34PM 32.4125 -95.7487 294° West  Level Estimated
10:35PM 32.4500 -95.8467 294° West  Level Estimated
10:36PM 32.4874 -95.9447 294° West  Level Estimated
10:37PM 32.5247 -96.0429 294° West  Level Estimated
10:38PM 32.5619 -96.1411 294° West  Level Estimated
10:39PM 32.5990 -96.2394 294° West  Level Estimated
10:40PM 32.6361 -96.3378 294° West  Level Estimated
10:41PM 32.6731 -96.4362 294° West  Level Estimated
10:42PM 32.7100 -96.5348 294° West  Level Estimated
10:43PM 32.7468 -96.6334 294° West  Level Estimated
10:44PM 32.7836 -96.7321 294° West  Level Estimated
10:45PM 32.8203 -96.8309 294° West  Level Estimated
10:46PM 32.8569 -96.9297 294° West  Level Estimated
10:47PM 32.8934 -97.0287 294° West  Level Estimated
10:48PM 32.8968 -97.0380 294° West  Level Estimated
10:49PM 32.8968 -97.0380 118° Southeast  Level Estimated